Terminal Aerodrome Forecast
Issued by NWS Nashville, TN

Current Version | Previous Version | Text Only | Print | Product List | Glossary On
Versions: 1 2 3 4 5 6 7 8 9 10 11 12 13 14 15 16 17 18 19 20 21 22 23
000
FTUS44 KOHX 290500
TAFCSV
TAF
KCSV 290522Z 2906/3006 18006KT P6SM SKC
     FM291600 19009G18KT P6SM SCT040
     FM291800 19009G18KT P6SM OVC040
     FM292300 18007KT P6SM OVC040=

USA.gov is the U.S. government's official web portal to all federal, state and local government web resources and services.